createdAt,value
2018-03-01T00:00:00.642Z,49.97
2018-03-01T00:00:41.148Z,49.78
2018-03-01T00:01:21.669Z,49.59
2018-03-01T00:02:02.182Z,49.68
2018-03-01T00:02:42.696Z,49.78
2018-03-01T00:03:23.204Z,49.49
2018-03-01T00:04:03.729Z,49.87
2018-03-01T00:04:44.249Z,49.68
2018-03-01T00:05:24.776Z,49.97
2018-03-01T00:06:05.287Z,49.97
2018-03-01T00:06:45.795Z,50.06
2018-03-01T00:07:26.328Z,50.25
2018-03-01T00:08:06.850Z,49.87
2018-03-01T00:08:47.361Z,50.06
2018-03-01T00:09:27.870Z,49.97
2018-03-01T00:10:08.381Z,49.97
2018-03-01T00:10:48.912Z,49.78
2018-03-01T00:11:29.453Z,49.59
2018-03-01T00:12:09.945Z,49.21
2018-03-01T00:12:50.477Z,49.4
2018-03-01T00:13:30.993Z,49.4
2018-03-01T00:14:11.528Z,49.49
2018-03-01T00:14:52.034Z,49.4
2018-03-01T00:15:32.535Z,49.59
2018-03-01T00:16:13.046Z,49.97
2018-03-01T00:16:53.562Z,50.16
2018-03-01T00:17:34.134Z,50.06
2018-03-01T00:18:14.660Z,49.97
2018-03-01T00:18:55.167Z,50.16
2018-03-01T00:19:35.681Z,49.97
2018-03-01T00:20:16.185Z,49.97
2018-03-01T00:20:56.694Z,49.97
2018-03-01T00:21:37.202Z,49.97
2018-03-01T00:22:17.768Z,49.97
2018-03-01T00:22:58.235Z,49.87
2018-03-01T00:23:38.747Z,50.35
2018-03-01T00:24:19.261Z,50.16
2018-03-01T00:24:59.754Z,50.53
2018-03-01T00:25:40.272Z,50.35
2018-03-01T00:26:20.795Z,50.35
2018-03-01T00:27:01.299Z,50.53
2018-03-01T00:27:41.806Z,50.44
2018-03-01T00:28:22.330Z,50.44
2018-03-01T00:29:02.845Z,50.35
2018-03-01T00:29:43.366Z,50.63
2018-03-01T00:30:23.880Z,50.82
2018-03-01T00:31:04.395Z,50.35
2018-03-01T00:31:44.904Z,50.72
2018-03-01T00:32:25.415Z,50.25
2018-03-01T00:33:05.926Z,50.44
2018-03-01T00:33:46.440Z,50.53
2018-03-01T00:34:26.951Z,50.44
2018-03-01T00:35:07.456Z,50.63
2018-03-01T00:35:48.000Z,50.72
2018-03-01T00:36:28.503Z,50.82
2018-03-01T00:37:09.014Z,50.72
2018-03-01T00:37:49.521Z,51.1
2018-03-01T00:38:30.031Z,50.72
2018-03-01T00:39:10.566Z,50.82
2018-03-01T00:39:51.074Z,50.63
2018-03-01T00:40:31.599Z,50.91
2018-03-01T00:41:12.105Z,50.82
2018-03-01T00:41:52.616Z,50.91
2018-03-01T00:42:33.130Z,50.91
2018-03-01T00:43:13.648Z,50.82
2018-03-01T00:43:54.157Z,50.91
2018-03-01T00:44:34.672Z,51.01
2018-03-01T00:45:15.187Z,51.1
2018-03-01T00:45:55.711Z,50.91
2018-03-01T00:46:36.235Z,50.91
2018-03-01T00:47:16.757Z,51.48
2018-03-01T00:47:57.273Z,51.39
2018-03-01T00:48:37.786Z,51.2
2018-03-01T00:49:18.306Z,51.2
2018-03-01T00:49:58.824Z,51.29
2018-03-01T00:50:39.343Z,51.67
2018-03-01T00:51:19.847Z,51.48
2018-03-01T00:52:00.374Z,51.48
2018-03-01T00:52:40.884Z,51.1
2018-03-01T00:53:21.390Z,51.39
2018-03-01T00:54:01.911Z,51.29
2018-03-01T00:54:42.423Z,50.91
2018-03-01T00:55:22.947Z,50.91
2018-03-01T00:56:03.471Z,51.01
2018-03-01T00:56:43.969Z,50.82
2018-03-01T00:57:24.482Z,51.1
2018-03-01T00:58:05.004Z,50.72
2018-03-01T00:58:45.514Z,50.91
2018-03-01T00:59:26.032Z,50.82
2018-03-01T01:00:06.585Z,51.1
2018-03-01T01:00:47.115Z,51.01
2018-03-01T01:01:27.615Z,51.39
2018-03-01T01:02:08.114Z,51.57
2018-03-01T01:02:48.638Z,51.57
2018-03-01T01:03:29.150Z,51.48
2018-03-01T01:04:09.664Z,51.57
2018-03-01T01:04:50.172Z,51.39
2018-03-01T01:05:30.694Z,51.48
2018-03-01T01:06:11.204Z,51.1
2018-03-01T01:06:51.709Z,51.2
2018-03-01T01:07:32.218Z,51.29
2018-03-01T01:08:12.723Z,51.2
2018-03-01T01:08:53.239Z,51.1
2018-03-01T01:09:33.769Z,51.29
2018-03-01T01:10:14.292Z,51.39
2018-03-01T01:10:54.808Z,51.39
2018-03-01T01:11:35.341Z,51.39
2018-03-01T01:12:15.875Z,51.29
2018-03-01T01:12:56.376Z,51.39
2018-03-01T01:13:36.909Z,51.57
2018-03-01T01:14:17.410Z,52.04
2018-03-01T01:14:57.913Z,51.95
2018-03-01T01:15:38.438Z,51.92
2018-03-01T01:16:19.028Z,52.21
2018-03-01T01:16:59.556Z,52.21
2018-03-01T01:17:40.080Z,52.59
2018-03-01T01:18:20.573Z,52.78
2018-03-01T01:19:01.097Z,52.78
2018-03-01T01:19:41.611Z,52.68
2018-03-01T01:20:22.142Z,52.78
2018-03-01T01:21:02.653Z,52.59
2018-03-01T01:21:43.164Z,52.78
2018-03-01T01:22:23.666Z,52.49
2018-03-01T01:23:04.187Z,52.78
2018-03-01T01:23:44.684Z,52.61
2018-03-01T01:24:25.183Z,52.61
2018-03-01T01:25:05.680Z,52.89
2018-03-01T01:25:46.200Z,52.42
2018-03-01T01:26:26.737Z,52.23
2018-03-01T01:27:07.241Z,52.23
2018-03-01T01:27:47.776Z,52.21
2018-03-01T01:28:28.285Z,52.49
2018-03-01T01:29:08.798Z,52.87
2018-03-01T01:29:49.316Z,53.18
2018-03-01T01:30:29.826Z,52.8
2018-03-01T01:31:10.346Z,52.7
2018-03-01T01:31:50.845Z,52.87
2018-03-01T01:32:31.365Z,52.59
2018-03-01T01:33:11.869Z,52.99
2018-03-01T01:33:52.386Z,52.61
2018-03-01T01:34:32.912Z,52.68
2018-03-01T01:35:13.419Z,53.15
2018-03-01T01:35:53.961Z,53.34
2018-03-01T01:36:34.463Z,52.89
2018-03-01T01:37:14.978Z,52.99
2018-03-01T01:37:55.496Z,53.18
2018-03-01T01:38:36.010Z,52.61
2018-03-01T01:39:16.550Z,52.7
2018-03-01T01:39:57.061Z,52.42
2018-03-01T01:40:37.571Z,52.61
2018-03-01T01:41:18.092Z,52.61
2018-03-01T01:41:58.621Z,52.59
2018-03-01T01:42:39.131Z,52.68
2018-03-01T01:43:19.641Z,53.08
2018-03-01T01:44:00.142Z,53.15
2018-03-01T01:44:40.679Z,53.44
2018-03-01T01:45:21.198Z,53.25
2018-03-01T01:46:01.711Z,53.15
2018-03-01T01:46:42.223Z,53.25
2018-03-01T01:47:22.747Z,53.15
2018-03-01T01:48:03.278Z,53.63
2018-03-01T01:48:43.797Z,53.63
2018-03-01T01:49:24.313Z,53.53
2018-03-01T01:50:04.838Z,53.63
2018-03-01T01:50:45.346Z,53.27
2018-03-01T01:51:25.859Z,53.63
2018-03-01T01:52:06.373Z,53.25
2018-03-01T01:52:46.900Z,53.44
2018-03-01T01:53:27.417Z,53.34
2018-03-01T01:54:07.932Z,53.63
2018-03-01T01:54:48.444Z,53.72
2018-03-01T01:55:28.974Z,53.81
2018-03-01T01:56:09.482Z,53.72
2018-03-01T01:56:49.995Z,54
2018-03-01T01:57:30.520Z,53.81
2018-03-01T01:58:11.034Z,53.53
2018-03-01T01:58:51.555Z,53.81
2018-03-01T01:59:32.077Z,53.72
2018-03-01T02:00:12.582Z,54.1
2018-03-01T02:00:53.102Z,54.28
2018-03-01T02:01:33.602Z,53.91
2018-03-01T02:02:14.131Z,54.57
2018-03-01T02:02:54.645Z,54.47
2018-03-01T02:03:35.170Z,54.28
2018-03-01T02:04:15.661Z,54.28
2018-03-01T02:04:56.174Z,54.28
2018-03-01T02:05:36.691Z,54.28
2018-03-01T02:06:17.191Z,54.28
2018-03-01T02:06:57.703Z,53.72
2018-03-01T02:07:38.202Z,53.91
2018-03-01T02:08:18.712Z,53.91
2018-03-01T02:08:59.220Z,54
2018-03-01T02:09:39.721Z,54.47
2018-03-01T02:10:20.238Z,54.28
2018-03-01T02:11:00.765Z,54.1
2018-03-01T02:11:41.288Z,54.28
2018-03-01T02:12:21.797Z,54.75
2018-03-01T02:13:02.341Z,54.94
2018-03-01T02:13:42.851Z,54.75
2018-03-01T02:14:23.349Z,54.47
2018-03-01T02:15:03.877Z,54.75
2018-03-01T02:15:44.393Z,54.38
2018-03-01T02:16:24.917Z,54.38
2018-03-01T02:17:05.433Z,54.38
2018-03-01T02:17:45.948Z,54.85
2018-03-01T02:18:26.472Z,54.75
2018-03-01T02:19:06.982Z,54.38
2018-03-01T02:19:47.485Z,54.47
2018-03-01T02:20:27.997Z,54.47
2018-03-01T02:21:08.505Z,54.47
2018-03-01T02:21:49.017Z,54.47
2018-03-01T02:22:29.524Z,54.57
2018-03-01T02:23:10.030Z,54
2018-03-01T02:23:50.591Z,53.91
2018-03-01T02:24:31.125Z,53.91
2018-03-01T02:25:11.595Z,53.91
2018-03-01T02:25:52.145Z,53.91
2018-03-01T02:27:40.114Z,53.63
2018-03-01T02:28:20.628Z,53.65
2018-03-01T02:29:01.153Z,53.25
2018-03-01T02:29:41.704Z,53.46
2018-03-01T02:30:22.162Z,53.46
2018-03-01T02:31:02.665Z,53.18
2018-03-01T02:31:43.178Z,53.08
2018-03-01T02:32:23.678Z,53.63
2018-03-01T02:33:04.186Z,53.06
2018-03-01T02:33:44.684Z,53.34
2018-03-01T02:34:25.202Z,53.81
2018-03-01T02:35:05.700Z,53.63
2018-03-01T02:35:46.214Z,53.91
2018-03-01T02:36:26.718Z,54.57
2018-03-01T02:37:07.227Z,54.1
2018-03-01T02:37:47.744Z,54.28
2018-03-01T02:38:28.260Z,54.47
2018-03-01T02:39:08.774Z,54.47
2018-03-01T02:39:49.309Z,54.57
2018-03-01T02:40:29.828Z,53.91
2018-03-01T02:41:10.358Z,53.53
2018-03-01T02:41:50.886Z,53.81
2018-03-01T02:42:31.527Z,53.72
2018-03-01T02:43:11.968Z,53.63
2018-03-01T02:43:52.486Z,53.53
2018-03-01T02:44:33.018Z,53.34
2018-03-01T02:45:13.530Z,53.91
2018-03-01T02:45:54.049Z,54.38
2018-03-01T02:47:52.251Z,54.38
2018-03-01T02:48:32.758Z,54.47
2018-03-01T02:49:13.263Z,54.57
2018-03-01T02:49:53.784Z,54.1
2018-03-01T02:50:34.272Z,53.91
2018-03-01T02:51:14.780Z,53.91
2018-03-01T02:51:55.287Z,54
2018-03-01T02:52:35.791Z,53.81
2018-03-01T02:53:16.296Z,53.72
2018-03-01T02:53:56.836Z,53.53
2018-03-01T02:54:37.347Z,53.53
2018-03-01T02:55:17.859Z,53.34
2018-03-01T02:55:58.386Z,53.53
2018-03-01T02:56:38.888Z,53.44
2018-03-01T02:57:19.384Z,53.53
2018-03-01T02:57:59.911Z,53.63
2018-03-01T02:58:40.416Z,53.63
2018-03-01T02:59:20.973Z,53.81
2018-03-01T03:00:01.465Z,53.63
2018-03-01T03:00:41.988Z,53.25
2018-03-01T03:01:22.498Z,53.44
2018-03-01T03:02:03.003Z,53.44
2018-03-01T03:02:43.513Z,53.63
2018-03-01T03:03:24.010Z,53.25
2018-03-01T03:04:04.524Z,53.44
2018-03-01T03:04:45.029Z,53.25
2018-03-01T03:05:25.567Z,53.44
2018-03-01T03:06:06.066Z,53.15
2018-03-01T03:06:46.571Z,53.44
2018-03-01T03:07:27.069Z,53.25
2018-03-01T03:08:07.574Z,53.44
2018-03-01T03:08:48.093Z,53.34
2018-03-01T03:09:28.612Z,53.44
2018-03-01T03:10:09.132Z,53.34
2018-03-01T03:10:49.639Z,53.53
2018-03-01T03:11:30.146Z,53.34
2018-03-01T03:12:10.659Z,53.44
2018-03-01T03:12:51.170Z,53.44
2018-03-01T03:13:31.677Z,53.63
2018-03-01T03:14:12.212Z,53.44
2018-03-01T03:14:52.725Z,54
2018-03-01T03:15:33.262Z,53.63
2018-03-01T03:16:13.767Z,53.63
2018-03-01T03:16:54.268Z,53.81
2018-03-01T03:17:34.765Z,53.72
2018-03-01T03:18:15.277Z,54
2018-03-01T03:18:55.810Z,53.81
2018-03-01T03:19:36.311Z,53.72
2018-03-01T03:20:16.817Z,53.72
2018-03-01T03:20:57.355Z,54.57
2018-03-01T03:21:37.856Z,54.28
2018-03-01T03:22:18.403Z,54.66
2018-03-01T03:22:58.943Z,54.75
2018-03-01T03:23:39.472Z,54.66
2018-03-01T03:24:20.031Z,54.75
2018-03-01T03:25:00.499Z,54.38
2018-03-01T03:25:41.070Z,54.38
2018-03-01T03:26:21.534Z,54.28
2018-03-01T03:27:02.046Z,53.91
2018-03-01T03:27:42.554Z,53.63
2018-03-01T03:28:23.090Z,53.44
2018-03-01T03:29:03.554Z,53.72
2018-03-01T03:29:44.073Z,53.91
2018-03-01T03:30:24.580Z,53.81
2018-03-01T03:31:05.086Z,53.63
2018-03-01T03:31:45.598Z,53.81
2018-03-01T03:34:04.006Z,54.66
2018-03-01T03:34:44.515Z,54.66
2018-03-01T03:35:25.043Z,54.66
2018-03-01T03:36:05.559Z,54.66
2018-03-01T03:36:46.078Z,54.47
2018-03-01T03:37:26.573Z,54.75
2018-03-01T03:38:07.085Z,54.66
2018-03-01T03:38:47.597Z,54.47
2018-03-01T03:39:28.116Z,54.47
2018-03-01T03:40:08.618Z,54.1
2018-03-01T03:40:49.139Z,53.91
2018-03-01T03:41:29.638Z,53.91
2018-03-01T03:42:10.145Z,53.44
2018-03-01T03:42:50.662Z,53.15
2018-03-01T03:43:31.176Z,53.81
2018-03-01T03:44:11.683Z,53.44
2018-03-01T03:44:52.202Z,53.91
2018-03-01T03:45:32.710Z,53.91
2018-03-01T03:46:13.217Z,53.91
2018-03-01T03:46:53.728Z,53.63
2018-03-01T03:47:34.231Z,53.44
2018-03-01T03:48:14.742Z,53.53
2018-03-01T03:48:55.244Z,53.53
2018-03-01T03:49:35.757Z,53.46
2018-03-01T03:50:16.264Z,53.56
2018-03-01T03:50:56.778Z,53.08
2018-03-01T03:51:38.116Z,53.34
2018-03-01T03:52:17.799Z,53.25
2018-03-01T03:52:58.300Z,53.34
2018-03-01T03:53:38.835Z,53.34
2018-03-01T03:54:19.343Z,53.06
2018-03-01T03:54:59.832Z,53.15
2018-03-01T03:55:40.343Z,53.06
2018-03-01T03:56:20.851Z,53.25
2018-03-01T03:57:01.346Z,53.34
2018-03-01T03:57:41.854Z,53.25
2018-03-01T03:58:22.368Z,53.06
2018-03-01T03:59:02.872Z,53.34
2018-03-01T03:59:43.376Z,53.34
2018-03-01T04:00:23.881Z,53.34
2018-03-01T04:01:04.387Z,53.15
2018-03-01T04:01:44.906Z,53.44
2018-03-01T04:02:25.467Z,53.34
2018-03-01T04:03:06.025Z,53.34
2018-03-01T04:03:46.524Z,53.15
2018-03-01T04:04:27.035Z,53.44
2018-03-01T04:05:07.574Z,53.53
2018-03-01T04:05:48.077Z,53.63
2018-03-01T04:06:28.597Z,53.63
2018-03-01T04:07:09.100Z,53.53
2018-03-01T04:07:49.622Z,53.72
2018-03-01T04:08:30.128Z,53.63
2018-03-01T04:09:10.640Z,53.34
2018-03-01T04:09:51.148Z,53.44
2018-03-01T04:10:31.648Z,53.27
2018-03-01T04:11:12.160Z,53.34
2018-03-01T04:11:52.664Z,53.18
2018-03-01T04:12:33.175Z,52.61
2018-03-01T04:13:13.690Z,52.89
2018-03-01T04:13:54.227Z,52.8
2018-03-01T04:14:34.732Z,52.42
2018-03-01T04:15:15.282Z,52.23
2018-03-01T04:15:55.766Z,52.14
2018-03-01T04:16:36.271Z,52.4
2018-03-01T04:17:16.769Z,52.49
2018-03-01T04:17:57.283Z,52.68
2018-03-01T04:18:37.808Z,53.25
2018-03-01T04:19:18.310Z,53.25
2018-03-01T04:19:58.814Z,53.25
2018-03-01T04:20:39.317Z,53.44
2018-03-01T04:21:19.844Z,53.63
2018-03-01T04:22:00.349Z,53.44
2018-03-01T04:22:40.853Z,53.53
2018-03-01T04:23:21.376Z,53.34
2018-03-01T04:24:01.888Z,53.44
2018-03-01T04:24:42.403Z,52.96
2018-03-01T04:25:22.910Z,53.53
2018-03-01T04:26:03.431Z,53.65
2018-03-01T04:26:43.948Z,53.37
2018-03-01T04:27:24.460Z,52.61
2018-03-01T04:28:04.970Z,52.61
2018-03-01T04:28:45.490Z,52.7
2018-03-01T04:29:26.012Z,52.89
2018-03-01T04:30:06.530Z,52.51
2018-03-01T04:30:47.031Z,52.11
2018-03-01T04:31:27.533Z,52.51
2018-03-01T04:32:08.043Z,52.49
2018-03-01T04:32:48.572Z,52.33
2018-03-01T04:33:29.076Z,52.33
2018-03-01T04:34:09.573Z,52.33
2018-03-01T04:34:50.078Z,52.23
2018-03-01T04:35:30.582Z,52.33
2018-03-01T04:36:11.101Z,51.95
2018-03-01T04:36:51.612Z,52.14
2018-03-01T04:37:32.145Z,51.86
2018-03-01T04:38:12.670Z,51.86
2018-03-01T04:38:53.163Z,52.14
2018-03-01T04:39:33.689Z,52.42
2018-03-01T04:40:14.199Z,52.3
2018-03-01T04:40:54.705Z,52.11
2018-03-01T04:41:35.224Z,52.3
2018-03-01T04:42:15.729Z,53.15
2018-03-01T04:42:56.236Z,52.87
2018-03-01T04:43:36.750Z,53.06
2018-03-01T04:44:17.284Z,53.15
2018-03-01T04:44:57.796Z,53.34
2018-03-01T04:45:38.327Z,53.34
2018-03-01T04:46:18.856Z,53.25
2018-03-01T04:46:59.364Z,52.68
2018-03-01T04:47:39.889Z,52.61
2018-03-01T04:48:20.415Z,52.68
2018-03-01T04:49:00.921Z,52.78
2018-03-01T04:49:41.422Z,52.87
2018-03-01T04:50:21.943Z,52.87
2018-03-01T04:51:02.456Z,52.59
2018-03-01T04:51:42.977Z,52.68
2018-03-01T04:52:23.494Z,53.15
2018-03-01T04:53:04.008Z,53.15
2018-03-01T04:53:44.516Z,53.53
2018-03-01T04:54:25.019Z,53.34
2018-03-01T04:55:05.525Z,53.72
2018-03-01T04:55:46.035Z,54.38
2018-03-01T04:56:26.554Z,54.28
2018-03-01T04:57:07.098Z,54.75
2018-03-01T04:57:47.618Z,54.66
2018-03-01T04:58:28.116Z,54
2018-03-01T04:59:08.639Z,54.19
2018-03-01T04:59:49.153Z,54.57
2018-03-01T05:00:29.661Z,54.47
2018-03-01T05:01:10.168Z,54.1
2018-03-01T05:01:50.683Z,54.19
2018-03-01T05:02:31.189Z,54.38
2018-03-01T05:03:11.702Z,53.63
2018-03-01T05:03:52.238Z,53.81
2018-03-01T05:04:32.756Z,53.81
2018-03-01T05:05:13.287Z,53.91
2018-03-01T05:05:53.793Z,53.91
2018-03-01T05:06:34.300Z,53.72
2018-03-01T05:07:14.812Z,53.34
2018-03-01T05:07:55.336Z,53.63
2018-03-01T05:08:35.844Z,53.53
2018-03-01T05:09:16.360Z,53.63
2018-03-01T05:09:56.876Z,53.44
2018-03-01T05:10:37.382Z,53.44
2018-03-01T05:11:17.941Z,53.53
2018-03-01T05:11:58.488Z,53.34
2018-03-01T05:12:38.970Z,53.44
2018-03-01T05:13:19.479Z,53.44
2018-03-01T05:13:59.978Z,53.44
2018-03-01T05:14:40.484Z,53.44
2018-03-01T05:15:20.987Z,53.44
2018-03-01T05:16:01.492Z,53.06
2018-03-01T05:16:41.993Z,53.44
2018-03-01T05:17:22.500Z,53.53
2018-03-01T05:18:03.006Z,53.15
2018-03-01T05:18:43.516Z,53.34
2018-03-01T05:19:24.112Z,53.25
2018-03-01T05:20:04.583Z,52.96
2018-03-01T05:20:45.095Z,53.44
2018-03-01T05:21:25.608Z,53.63
2018-03-01T05:22:06.127Z,53.81
2018-03-01T05:22:46.640Z,54.57
2018-03-01T05:23:27.149Z,54.75
2018-03-01T05:24:07.660Z,54.75
2018-03-01T05:24:48.176Z,54.75
2018-03-01T05:25:28.712Z,54.75
2018-03-01T05:26:09.222Z,54.85
2018-03-01T05:26:49.738Z,54.38
2018-03-01T05:27:30.249Z,54.57
2018-03-01T05:28:10.755Z,54.85
2018-03-01T05:28:51.266Z,54.28
2018-03-01T05:29:31.795Z,54
2018-03-01T05:30:12.305Z,53.81
2018-03-01T05:30:52.841Z,53.81
2018-03-01T05:31:33.380Z,53.81
2018-03-01T05:32:13.899Z,53.72
2018-03-01T05:32:54.408Z,53.81
2018-03-01T05:33:34.925Z,53.63
2018-03-01T05:34:15.435Z,53.91
2018-03-01T05:34:55.954Z,54
2018-03-01T05:35:36.455Z,54
2018-03-01T05:36:16.965Z,54
2018-03-01T05:36:57.472Z,54.47
2018-03-01T05:37:37.991Z,54.47
2018-03-01T05:38:18.500Z,54.57
2018-03-01T05:38:59.032Z,54
2018-03-01T05:39:39.572Z,54.47
2018-03-01T05:40:20.074Z,54.57
2018-03-01T05:41:00.579Z,54.47
2018-03-01T05:41:41.084Z,54.47
2018-03-01T05:42:21.596Z,54
2018-03-01T05:43:02.103Z,53.63
2018-03-01T05:43:42.613Z,53.72
2018-03-01T05:44:23.142Z,53.34
2018-03-01T05:45:03.648Z,54
2018-03-01T05:45:44.156Z,53.91
2018-03-01T05:46:24.647Z,54.57
2018-03-01T05:47:05.163Z,54.57
2018-03-01T05:47:45.667Z,54.28
2018-03-01T05:48:26.198Z,54.1
2018-03-01T05:49:06.703Z,54.38
2018-03-01T05:49:47.211Z,54.47
2018-03-01T05:50:27.724Z,54.47
2018-03-01T05:51:08.226Z,54.47
2018-03-01T05:51:48.738Z,54.66
2018-03-01T05:52:29.255Z,54.38
2018-03-01T05:53:09.859Z,54.57
2018-03-01T05:53:50.371Z,54.75
2018-03-01T05:54:30.880Z,54.66
2018-03-01T05:55:11.401Z,54.47
2018-03-01T05:55:51.936Z,54.19
2018-03-01T05:56:32.444Z,54.38
2018-03-01T05:57:12.968Z,54.85
2018-03-01T05:57:53.463Z,54.57
2018-03-01T05:58:33.991Z,55.13
2018-03-01T05:59:14.506Z,55.13
2018-03-01T05:59:55.010Z,55.13
2018-03-01T06:00:35.581Z,55.23
2018-03-01T06:01:16.104Z,55.32
2018-03-01T06:01:56.623Z,55.13
2018-03-01T06:02:37.138Z,54.75
2018-03-01T06:03:17.651Z,54.66
2018-03-01T06:03:58.178Z,54.75
2018-03-01T06:04:38.706Z,54.66
2018-03-01T06:05:19.214Z,54.57
2018-03-01T06:05:59.746Z,54.28
2018-03-01T06:06:40.280Z,54.47
2018-03-01T06:07:20.752Z,53.91
2018-03-01T06:08:01.278Z,53.63
2018-03-01T06:08:41.768Z,53.91
2018-03-01T06:09:22.318Z,54.1
2018-03-01T06:10:02.773Z,54.38
2018-03-01T06:10:43.282Z,54.47
2018-03-01T06:11:23.785Z,54.1
2018-03-01T06:12:04.332Z,54.47
2018-03-01T06:12:44.857Z,54.19
2018-03-01T06:13:25.380Z,54.57
2018-03-01T06:14:05.876Z,54.47
2018-03-01T06:14:46.381Z,54.28
2018-03-01T06:15:26.881Z,53.91
2018-03-01T06:16:07.393Z,54.28
2018-03-01T06:16:47.877Z,54.47
2018-03-01T06:17:28.395Z,54
2018-03-01T06:18:08.902Z,54.57
2018-03-01T06:18:49.415Z,54.19
2018-03-01T06:19:29.932Z,54.66
2018-03-01T06:20:10.439Z,54.66
2018-03-01T06:20:50.956Z,54.75
2018-03-01T06:21:31.467Z,54.66
2018-03-01T06:22:11.979Z,54.75
2018-03-01T06:22:52.503Z,54.57
2018-03-01T06:23:33.021Z,54.75
2018-03-01T06:24:13.540Z,54.85
2018-03-01T06:24:54.044Z,54.75
2018-03-01T06:25:34.540Z,54.1
2018-03-01T06:26:15.054Z,54.47
2018-03-01T06:26:55.555Z,54.47
2018-03-01T06:27:36.062Z,54.47
2018-03-01T06:28:16.574Z,54.5
2018-03-01T06:28:57.200Z,54.1
2018-03-01T06:29:37.623Z,54
2018-03-01T06:30:18.235Z,53.94
2018-03-01T06:30:58.740Z,53.65
2018-03-01T06:31:39.246Z,53.63
2018-03-01T06:32:19.761Z,53.44
2018-03-01T06:33:00.281Z,53.72
2018-03-01T06:33:40.798Z,53.72
2018-03-01T06:34:21.314Z,54.47
2018-03-01T06:35:01.842Z,54.38
2018-03-01T06:35:42.368Z,54.38
2018-03-01T06:36:22.857Z,54.28
2018-03-01T06:37:03.440Z,54
2018-03-01T06:37:43.896Z,54.57
2018-03-01T06:38:24.425Z,54.6
2018-03-01T06:39:04.953Z,54.47
2018-03-01T06:39:45.551Z,54
2018-03-01T06:40:26.063Z,53.91
2018-03-01T06:41:06.578Z,54.19
2018-03-01T06:41:48.706Z,54.13
2018-03-01T06:42:29.440Z,53.75
2018-03-01T06:43:11.036Z,53.72
2018-03-01T06:43:51.464Z,53.34
2018-03-01T06:44:32.786Z,53.63
2018-03-01T06:45:13.308Z,53.53
2018-03-01T06:45:53.829Z,53.81
2018-03-01T06:46:34.334Z,53.63
2018-03-01T06:47:14.837Z,53.91
2018-03-01T06:47:55.365Z,54.47
2018-03-01T06:48:35.890Z,54.57
2018-03-01T06:49:16.427Z,54.47
2018-03-01T06:49:56.928Z,54.47
2018-03-01T06:50:37.571Z,54.47
2018-03-01T06:51:17.962Z,54.47
2018-03-01T06:51:58.493Z,54.47
2018-03-01T06:52:38.996Z,54.1
2018-03-01T06:53:19.501Z,53.72
2018-03-01T06:54:00.462Z,54.1
2018-03-01T06:54:41.027Z,54.66
2018-03-01T06:55:21.556Z,54.47
2018-03-01T06:56:02.066Z,54.57
2018-03-01T06:56:42.691Z,54.22
2018-03-01T06:57:23.201Z,53.91
2018-03-01T06:58:03.705Z,53.91
2018-03-01T06:58:44.232Z,53.94
2018-03-01T06:59:24.744Z,53.65
2018-03-01T07:00:05.311Z,53.56
2018-03-01T07:00:46.801Z,53.46
2018-03-01T07:01:27.607Z,53.27
2018-03-01T07:02:07.915Z,53.65
2018-03-01T07:02:48.485Z,53.18
2018-03-01T07:03:29.039Z,52.99
2018-03-01T07:04:09.537Z,53.65
2018-03-01T07:04:50.081Z,53.56
2018-03-01T07:05:30.580Z,53.18
2018-03-01T07:06:11.107Z,53.65
2018-03-01T07:06:51.632Z,53.08
2018-03-01T07:07:32.184Z,53.08
2018-03-01T07:08:12.691Z,52.99
2018-03-01T07:08:53.208Z,53.56
2018-03-01T07:09:33.715Z,53.65
2018-03-01T07:10:14.262Z,53.56
2018-03-01T07:10:54.820Z,53.27
2018-03-01T07:11:36.144Z,53.27
2018-03-01T07:12:16.629Z,52.7
2018-03-01T07:12:57.137Z,52.7
2018-03-01T07:13:37.667Z,52.89
2018-03-01T07:14:18.177Z,52.51
2018-03-01T07:14:58.688Z,52.8
2018-03-01T07:15:39.221Z,52.61
2018-03-01T07:16:19.739Z,52.61
2018-03-01T07:17:00.255Z,52.8
2018-03-01T07:17:40.791Z,52.61
2018-03-01T07:18:21.301Z,52.7
2018-03-01T07:19:01.844Z,52.89
2018-03-01T07:19:42.356Z,53.08
2018-03-01T07:20:22.865Z,53.56
2018-03-01T07:21:03.376Z,53.56
2018-03-01T07:21:43.899Z,53.08
2018-03-01T07:22:24.418Z,53.27
2018-03-01T07:23:04.951Z,53.56
2018-03-01T07:23:45.453Z,53.37
2018-03-01T07:24:25.951Z,53.46
2018-03-01T07:25:06.536Z,53.46
2018-03-01T07:25:47.054Z,53.46
2018-03-01T07:26:27.572Z,53.37
2018-03-01T07:27:08.158Z,53.56
2018-03-01T07:27:48.671Z,53.18
2018-03-01T07:28:29.304Z,53.18
2018-03-01T07:29:09.848Z,52.99
2018-03-01T07:29:50.350Z,52.14
2018-03-01T07:30:30.927Z,52.33
2018-03-01T07:31:11.544Z,52.23
2018-03-01T07:31:52.040Z,51.86
2018-03-01T07:32:32.545Z,52.07
2018-03-01T07:33:13.057Z,51.98
2018-03-01T07:33:53.608Z,51.6
2018-03-01T07:34:34.079Z,51.79
2018-03-01T07:35:14.606Z,51.41
2018-03-01T07:35:55.810Z,51.13
2018-03-01T07:36:36.317Z,51.5
2018-03-01T07:37:16.826Z,51.69
2018-03-01T07:37:57.444Z,51.13
2018-03-01T07:38:37.965Z,51.03
2018-03-01T07:39:18.482Z,50.65
2018-03-01T07:39:58.963Z,51.13
2018-03-01T07:40:39.488Z,50.75
2018-03-01T07:41:20.012Z,51.22
2018-03-01T07:42:00.566Z,50.84
2018-03-01T07:42:41.073Z,50.94
2018-03-01T07:43:21.597Z,51.03
2018-03-01T07:44:02.103Z,50.94
2018-03-01T07:44:42.610Z,51.03
2018-03-01T07:45:23.149Z,50.84
2018-03-01T07:46:03.668Z,51.03
2018-03-01T07:46:44.169Z,50.75
2018-03-01T07:47:25.450Z,50.84
2018-03-01T07:48:05.924Z,51.13
2018-03-01T07:48:46.433Z,50.94
2018-03-01T07:49:26.940Z,50.94
2018-03-01T07:50:07.437Z,50.65
2018-03-01T07:50:47.934Z,50.94
2018-03-01T07:51:28.445Z,50.75
2018-03-01T07:52:09.096Z,50.65
2018-03-01T07:52:49.593Z,51.22
2018-03-01T07:53:30.179Z,50.84
2018-03-01T07:54:10.694Z,50.84
2018-03-01T07:54:51.434Z,51.22
2018-03-01T07:55:32.669Z,50.65
2018-03-01T07:56:13.181Z,50.75
2018-03-01T07:56:53.670Z,50.09
2018-03-01T07:57:34.228Z,49.99
2018-03-01T07:58:14.722Z,50.37
2018-03-01T07:58:55.214Z,50.65
2018-03-01T07:59:35.718Z,50.46
2018-03-01T08:00:16.208Z,50.75
2018-03-01T08:00:56.705Z,50.56
2018-03-01T08:01:37.225Z,50.46
2018-03-01T08:02:17.769Z,50.46
2018-03-01T08:02:58.292Z,50.09
2018-03-01T08:03:38.788Z,50.09
2018-03-01T08:04:19.355Z,49.99
2018-03-01T08:04:59.832Z,50.18
2018-03-01T08:05:40.342Z,49.71
2018-03-01T08:06:20.891Z,49.52
2018-03-01T08:07:01.409Z,49.33
2018-03-01T08:07:41.930Z,49.62
2018-03-01T08:08:22.534Z,49.62
2018-03-01T08:09:02.964Z,49.71
2018-03-01T08:09:43.480Z,49.73
2018-03-01T08:10:24.002Z,49.16
2018-03-01T08:11:04.512Z,49.14
2018-03-01T08:11:45.072Z,49.26
2018-03-01T08:12:25.530Z,48.97
2018-03-01T08:13:06.050Z,49.16
2018-03-01T08:13:46.590Z,48.69
2018-03-01T08:14:27.087Z,48.88
2018-03-01T08:15:07.596Z,48.88
2018-03-01T08:15:48.111Z,48.88
2018-03-01T08:16:28.649Z,48.97
2018-03-01T08:17:09.174Z,48.88
2018-03-01T08:17:49.679Z,48.88
2018-03-01T08:18:30.208Z,48.88
2018-03-01T08:19:10.706Z,48.88
2018-03-01T08:19:51.244Z,48.97
2018-03-01T08:20:31.733Z,48.86
2018-03-01T08:21:12.242Z,48.95
2018-03-01T08:23:30.542Z,49.71
2018-03-01T08:24:11.050Z,49.8
2018-03-01T08:24:51.609Z,49.9
2018-03-01T08:25:32.407Z,49.8
2018-03-01T08:26:12.919Z,49.52
2018-03-01T08:26:53.423Z,49.24
2018-03-01T08:27:33.924Z,49.14
2018-03-01T08:28:14.438Z,49.14
2018-03-01T08:28:54.952Z,49.24
2018-03-01T08:29:35.465Z,49.62
2018-03-01T08:30:15.971Z,49.71
2018-03-01T08:30:56.478Z,50.09
2018-03-01T08:31:37.056Z,49.99
2018-03-01T08:32:17.578Z,50.46
2018-03-01T08:32:58.077Z,50.37
2018-03-01T08:33:38.585Z,50.27
2018-03-01T08:34:19.087Z,50.46
2018-03-01T08:34:59.591Z,50.65
2018-03-01T08:35:40.108Z,50.56
2018-03-01T08:36:20.611Z,50.46
2018-03-01T08:37:01.140Z,50.09
2018-03-01T08:37:41.649Z,50.37
2018-03-01T08:38:22.186Z,50.18
2018-03-01T08:39:02.715Z,50.37
2018-03-01T08:39:43.215Z,49.99
2018-03-01T08:40:23.708Z,50.18
2018-03-01T08:41:04.225Z,49.9
2018-03-01T08:41:44.777Z,49.9
2018-03-01T08:42:25.276Z,49.9
2018-03-01T08:43:05.788Z,49.8
2018-03-01T08:43:46.297Z,49.8
2018-03-01T08:45:39.414Z,50.09
2018-03-01T08:46:19.916Z,50.46
2018-03-01T08:47:00.426Z,49.99
2018-03-01T08:47:40.940Z,50.27
2018-03-01T08:48:21.439Z,49.99
2018-03-01T08:49:01.956Z,49.62
2018-03-01T08:49:42.472Z,49.43
2018-03-01T08:50:22.969Z,49.71
2018-03-01T08:51:03.487Z,49.71